LFBE/EGC METAR and TAF weather

Enter ICAO airport designator
Station Type Date Time Source
LFBE METAR 2021/07/30 07:00 UTC NOAA

LFBE 300700Z AUTO 26004KT 230V290 9999 FEW024/// BKN033/// OVC040/// ///CB 18/15 Q1015 TEMPO 3000 TSRA


Station Type Date Time Source
LFBE Decoded METAR 2021/07/30 07:00 UTC NOAA

Bergerac, France (LFBE) 44-49N 000-31E 52M
Jul 30, 2021 - 03:00 AM EDT / 2021.07.30 0700 UTC
Wind: from the W (260 degrees) at 5 MPH (4 KT) (direction variable):0
Visibility: greater than 7 mile(s):0
Sky conditions: overcast
Weather: Cumulonimbus clouds observed
Temperature: 64 F (18 C)
Dew Point: 59 F (15 C)
Relative Humidity: 82%
Pressure (altimeter): 29.97 in. Hg (1015 hPa)
ob: LFBE 300700Z AUTO 26004KT 230V290 9999 FEW024/// BKN033/// OVC040/// ///CB 18/15 Q1015 TEMPO 3000 TSRA
cycle: 7

Station Type Date Time Source
LFBE TAF 2021/07/30 06:21 UTC NOAA

TAF TAF LFBE 300500Z 3006/3106 30005KT 9999 BKN020
TEMPO 3006/3009 -SHRA BKN025TCU PROB30
TEMPO 3006/3009 3000 TSRA BKN020CB
TEMPO 3009/3015 30015KT -SHRA BKN030TCU

Example: see airport list